Latest Weather Observations for Kiama

IDN60801

Issued at 9:32 pm EDT Saturday 21 January 2017 (issued every 30 minutes, with the page automatically refreshed every 10 minutes)

About weather observations | Map of weather stations | Latest weather observations for NSW | Other Formats
Station Details ID: 068242 Name: KIAMA (BOMBO HEADLAND) Lat: -34.65 Lon: 150.86 Height: 15.5 m
Data from the previous 72 hours. | See also: Recent months at Kiama
Date/Time
EDT
Temp
°C
App
Temp
°C
Dew
Point
°C
Rel
Hum
%
Delta-T
°C
Wind Press
QNH
hPa
Press
MSL
hPa
Rain since
9am
mm
Dir  Spd
km/h
Gust
km/h
Spd
kts
Gust
kts
21/09:30pm 20.2 17.4 14.3 69 3.4 S 22 30 12 16 - - 0.0
21/09:00pm 20.6 18.6 15.4 72 3.1 SSE 20 24 11 13 - - 0.0
21/08:30pm 20.4 17.7 14.7 70 3.3 SSE 22 32 12 17 - - 0.0
21/08:00pm 20.5 17.0 14.4 68 3.6 SSE 26 30 14 16 - - 0.0
21/07:30pm 20.6 18.0 14.9 70 3.4 SSE 22 28 12 15 - - 0.0
21/07:00pm 20.7 18.3 15.3 71 3.2 SSE 22 30 12 16 - - 0.0
21/06:30pm 21.0 18.9 15.1 69 3.5 SSE 20 26 11 14 - - 0.0
21/06:00pm 21.3 19.4 15.2 68 3.6 SSE 19 22 10 12 - - 0.0
21/05:30pm 21.2 18.4 14.4 65 4.0 SSE 22 28 12 15 - - 0.0
21/05:00pm 21.7 19.6 15.1 66 3.9 SSE 20 24 11 13 - - 0.0
21/04:30pm 21.6 18.4 14.3 63 4.3 SSE 24 28 13 15 - - 0.0
21/04:00pm 21.6 18.0 14.3 63 4.3 SSE 26 30 14 16 - - 0.0
21/03:30pm 21.8 18.2 14.2 62 4.4 SSE 26 30 14 16 - - 0.0
21/03:00pm 21.4 17.2 13.6 61 4.5 SSE 28 33 15 18 - - 0.0
21/02:30pm 21.7 18.2 14.4 63 4.3 SSE 26 33 14 18 - - 0.0
21/02:00pm 21.8 17.5 14.4 63 4.3 SSE 30 35 16 19 - - 0.0
21/01:30pm 21.6 16.3 13.2 59 4.8 SSE 33 39 18 21 - - 0.0
21/01:00pm 21.6 16.7 13.8 61 4.5 SSE 32 37 17 20 - - 0.0
21/12:30pm 21.7 16.7 13.3 59 4.8 SSE 32 37 17 20 - - 0.0
21/12:00pm 21.6 16.9 13.2 59 4.8 SSE 30 35 16 19 - - 0.0
21/11:30am 21.8 17.4 12.9 57 5.1 SSE 28 33 15 18 - - 0.0
21/11:00am 21.6 17.3 13.2 59 4.8 SSE 28 33 15 18 - - 0.0
21/10:30am 21.5 17.4 12.6 57 5.0 S 26 33 14 18 - - 0.0
21/10:00am 21.4 17.9 13.3 60 4.6 S 24 35 13 19 - - 0.0
21/09:30am 21.4 17.9 12.3 56 5.1 S 22 32 12 17 - - 0.0
21/09:00am 21.5 18.5 11.8 54 5.4 SSW 19 28 10 15 - - 1.4
21/08:30am 21.3 17.5 11.1 52 5.6 SSW 22 30 12 16 - - 1.4
21/08:00am 20.9 17.0 10.7 52 5.6 SSW 22 30 12 16 - - 1.4
21/07:30am 20.6 19.2 12.1 58 4.8 SW 11 13 6 7 - - 1.4
21/07:00am 20.1 17.3 11.3 57 4.8 SSW 17 22 9 12 - - 1.4
21/06:30am 19.5 16.8 11.8 61 4.3 SSW 17 20 9 11 - - 1.4
21/06:00am 19.2 16.8 11.5 61 4.2 SW 15 19 8 10 - - 1.4
21/05:30am 19.8 16.7 12.1 61 4.3 SSW 20 26 11 14 - - 1.4
21/05:00am 19.8 17.5 11.8 60 4.4 SSW 15 22 8 12 - - 1.4
21/04:30am 19.3 19.0 11.3 60 4.4 NE 4 11 2 6 - - 1.4
21/04:00am 20.2 16.7 12.2 60 4.5 SSW 22 32 12 17 - - 1.4
21/03:30am 20.5 17.0 13.5 64 4.0 SSW 24 33 13 18 - - 1.4
21/03:00am 20.6 15.7 14.3 67 3.7 S 33 43 18 23 - - 1.4
21/02:30am 20.9 13.9 14.3 66 3.8 S 44 54 24 29 - - 1.4
21/02:00am 21.1 15.1 14.3 65 4.0 S 39 50 21 27 - - 1.4
21/01:30am 21.3 14.6 13.5 61 4.5 S 41 54 22 29 - - 1.4
21/01:00am 21.8 13.1 12.6 56 5.2 S 50 67 27 36 - - 1.4
21/12:30am 21.9 14.8 14.0 61 4.6 S 44 59 24 32 - - 1.4
21/12:00am 22.0 15.4 13.6 59 4.9 S 41 54 22 29 - - 1.4
 
Date/Time
EDT
Temp
°C
App
Temp
°C
Dew
Point
°C
Rel
Hum
%
Delta-T
°C
Wind Press
QNH
hPa
Press
MSL
hPa
Rain since
9am
mm
Dir  Spd
km/h
Gust
km/h
Spd
kts
Gust
kts
20/11:30pm 22.2 14.3 13.8 59 4.9 S 48 63 26 34 - - 1.4
20/11:09pm 21.9 18.4 15.5 67 3.8 S 28 54 15 29 - - 1.4
20/11:00pm 22.4 20.6 16.9 71 3.4 S 22 35 12 19 - - 1.4
20/10:30pm 22.1 23.0 17.5 75 2.8 SSW 9 15 5 8 - - 1.4
20/10:00pm 22.1 18.4 17.5 75 2.8 SSW 33 39 18 21 - - 1.4
20/09:30pm 22.0 18.5 18.0 78 2.5 S 33 44 18 24 - - 1.4
20/09:00pm 22.0 16.7 18.2 79 2.4 S 43 52 23 28 - - 1.4
20/08:30pm 22.6 18.1 19.0 80 2.3 SSW 41 54 22 29 - - 1.4
20/08:00pm 23.2 18.4 19.6 80 2.3 SSW 44 63 24 34 - - 1.4
20/07:36pm 24.4 19.6 20.5 79 2.5 SSW 46 65 25 35 - - 1.4
20/07:30pm 24.7 21.0 20.8 79 2.6 SSW 41 56 22 30 - - 1.4
20/07:07pm 26.2 24.7 20.3 70 3.9 S 28 52 15 28 - - 1.4
20/07:00pm 31.1 32.8 21.6 57 6.4 W 15 35 8 19 - - 1.4
20/06:30pm 30.2 32.9 22.1 62 5.5 WNW 11 17 6 9 - - 1.4
20/06:00pm 30.5 31.4 21.9 60 5.8 NW 20 33 11 18 - - 1.4
20/05:30pm 31.7 32.5 21.8 55 6.7 NW 20 32 11 17 - - 1.4
20/05:00pm 31.6 33.3 22.3 57 6.3 NW 17 30 9 16 - - 1.4
20/04:54pm 30.9 32.3 22.5 61 5.7 NW 19 33 10 18 - - 1.4
20/04:30pm 25.7 28.6 21.8 79 2.6 N 9 17 5 9 - - 1.4
20/04:00pm 24.2 26.2 21.5 85 1.8 N 13 20 7 11 - - 1.4
20/03:30pm 22.7 21.8 20.6 88 1.4 NNE 26 33 14 18 - - 1.4
20/03:00pm 22.9 22.6 20.4 86 1.6 NNE 22 32 12 17 - - 1.4
20/02:30pm 23.1 23.3 20.1 83 1.9 ENE 19 26 10 14 - - 1.4
20/02:00pm 24.0 24.6 20.3 80 2.4 NNE 17 28 9 15 - - 1.4
20/01:30pm 23.0 22.3 19.4 80 2.3 NNE 22 32 12 17 - - 1.4
20/01:00pm 22.7 22.2 19.1 80 2.3 N 20 28 11 15 - - 1.4
20/12:30pm 21.8 19.6 18.8 83 1.9 N 28 37 15 20 - - 1.4
20/12:00pm 20.7 21.3 18.5 87 1.4 NNW 13 24 7 13 - - 1.4
20/11:30am 20.4 18.6 17.8 85 1.6 N 24 33 13 18 - - 1.2
20/11:00am 20.7 19.2 17.7 83 1.8 NNW 22 30 12 16 - - 0.6
20/10:30am 20.4 19.2 17.6 84 1.7 NNW 20 28 11 15 - - 0.4
20/10:00am 20.9 20.7 17.7 82 2.0 N 15 22 8 12 - - 0.2
20/09:30am 22.0 21.1 16.9 73 3.1 NNW 17 30 9 16 - - 0.0
20/09:00am 21.6 17.8 17.2 76 2.7 N 33 46 18 25 - - 0.0
20/08:30am 21.7 17.9 17.1 75 2.8 N 33 43 18 23 - - 0.0
20/08:00am 21.6 18.1 16.6 73 3.0 N 30 41 16 22 - - 0.0
20/07:30am 21.7 18.6 16.6 73 3.1 N 28 39 15 21 - - 0.0
20/07:00am 21.4 20.4 16.6 74 2.9 N 17 28 9 15 - - 0.0
20/06:30am 21.0 19.9 16.4 75 2.8 NNW 17 26 9 14 - - 0.0
20/06:00am 20.8 19.3 16.2 75 2.8 NNW 19 28 10 15 - - 0.0
20/05:30am 20.7 19.6 16.3 76 2.6 NNW 17 24 9 13 - - 0.0
20/05:00am 21.0 19.9 16.4 75 2.8 NNW 17 26 9 14 - - 0.0
20/04:30am 21.2 20.6 16.6 75 2.8 N 15 30 8 16 - - 0.0
20/04:00am 20.9 20.8 16.9 78 2.4 N 13 26 7 14 - - 0.0
20/03:30am 20.6 20.1 17.0 80 2.2 N 15 24 8 13 - - 0.0
20/03:00am 20.5 20.0 16.9 80 2.2 N 15 24 8 13 - - 0.0
20/02:30am 20.4 18.2 17.0 81 2.1 N 24 33 13 18 - - 0.0
20/02:00am 20.5 16.8 16.9 80 2.2 N 32 46 17 25 - - 0.0
20/01:43am 20.8 18.9 16.8 78 2.4 N 22 44 12 24 - - 0.0
20/01:30am 20.4 20.4 16.2 77 2.5 NNW 11 20 6 11 - - 0.0
20/01:00am 20.5 20.8 15.9 75 2.7 N 9 15 5 8 - - 0.0
20/12:30am 20.7 20.6 15.9 74 2.9 N 11 22 6 12 - - 0.0
20/12:00am 20.9 19.1 15.9 73 3.0 N 20 30 11 16 - - 0.0
 
Date/Time
EDT
Temp
°C
App
Temp
°C
Dew
Point
°C
Rel
Hum
%
Delta-T
°C
Wind Press
QNH
hPa
Press
MSL
hPa
Rain since
9am
mm
Dir  Spd
km/h
Gust
km/h
Spd
kts
Gust
kts
19/11:30pm 21.0 18.1 16.0 73 3.0 N 26 37 14 20 - - 0.0
19/11:00pm 21.1 18.0 15.6 71 3.3 N 26 35 14 19 - - 0.0
19/10:30pm 21.0 17.6 15.8 72 3.1 NNE 28 35 15 19 - - 0.0
19/10:00pm 21.3 18.6 15.6 70 3.4 N 24 35 13 19 - - 0.0
19/09:30pm 21.3 18.1 15.2 68 3.6 NNE 26 43 14 23 - - 0.0
19/09:00pm 21.3 18.3 14.7 66 3.9 NNE 24 37 13 20 - - 0.0
19/08:30pm 21.4 18.5 15.0 67 3.8 NNE 24 35 13 19 - - 0.0
19/08:00pm 21.5 19.0 15.1 67 3.8 NNE 22 32 12 17 - - 0.0
19/07:30pm 21.5 18.5 14.9 66 3.9 NNE 24 37 13 20 - - 0.0
19/07:00pm 21.5 18.4 14.6 65 4.1 NNE 24 39 13 21 - - 0.0
19/06:30pm 21.5 18.7 14.4 64 4.2 NNE 22 30 12 16 - - 0.0
19/06:00pm 21.6 19.9 14.7 65 4.1 NNE 17 24 9 13 - - 0.0
19/05:30pm 21.7 19.5 14.4 63 4.3 NNE 19 28 10 15 - - 0.0
19/05:00pm 21.8 19.3 14.2 62 4.4 NNE 20 26 11 14 - - 0.0
19/04:30pm 21.6 19.4 14.5 64 4.2 NE 19 24 10 13 - - 0.0
19/04:00pm 21.6 19.5 14.7 65 4.1 NE 19 26 10 14 - - 0.0
19/03:30pm 21.6 19.3 14.0 62 4.4 NNE 19 28 10 15 - - 0.0
19/03:00pm 22.4 21.7 14.3 60 4.8 NNE 11 15 6 8 - - 0.0
19/02:30pm 22.0 22.7 14.6 63 4.4 NE 4 9 2 5 - - 0.0
19/02:00pm 22.0 22.7 14.4 62 4.5 NE 4 7 2 4 - - 0.0
19/01:30pm 22.0 22.7 14.6 63 4.4 NE 4 6 2 3 - - 0.0
19/01:00pm 21.5 22.7 14.9 66 3.9 SE 2 4 1 2 - - 0.0
19/12:30pm 20.7 20.9 14.8 69 3.5 SSE 7 11 4 6 - - 0.0
19/12:00pm 20.6 20.4 14.7 69 3.5 SSE 9 13 5 7 - - 0.0
19/11:30am 20.9 20.0 14.8 68 3.6 SE 13 15 7 8 - - 0.0
19/11:00am 21.5 22.1 13.2 59 4.8 ESE 2 6 1 3 - - 0.0
19/10:30am 21.5 22.1 13.2 59 4.8 ESE 2 7 1 4 - - 0.0
19/10:00am 21.7 22.7 13.3 59 4.8 CALM 0 2 0 1 - - 0.0
19/09:30am 20.6 21.4 12.6 60 4.5 CALM 0 4 0 2 - - 0.0
19/09:00am 20.3 20.0 12.8 62 4.2 S 6 7 3 4 - - 0.0
19/08:30am 19.9 20.4 12.7 63 4.1 S 2 6 1 3 - - 0.0
19/08:00am 19.6 18.9 13.3 67 3.6 SSW 9 11 5 6 - - 0.0
19/07:30am 19.3 18.7 13.5 69 3.3 SW 9 13 5 7 - - 0.0
19/07:00am 19.1 19.1 14.1 73 2.9 SW 7 9 4 5 - - 0.0
19/06:30am 19.0 17.1 14.1 73 2.8 SSW 17 20 9 11 - - 0.0
19/06:00am 19.4 18.2 14.0 71 3.1 SSW 13 17 7 9 - - 0.0
19/05:30am 19.2 16.9 14.0 72 3.0 SSE 19 26 10 14 - - 0.0
19/05:00am 20.0 18.5 13.0 64 4.0 SE 13 20 7 11 - - 0.0
19/04:30am 20.4 18.3 12.4 60 4.5 S 15 20 8 11 - - 0.0
19/04:00am 20.3 17.9 12.8 62 4.2 S 17 24 9 13 - - 0.0
19/03:30am 20.3 17.4 13.0 63 4.1 SSE 20 30 11 16 - - 0.0
19/03:00am 20.0 18.3 13.5 66 3.7 S 15 22 8 12 - - 0.0
19/02:30am 20.0 16.8 13.2 65 3.9 SSE 22 32 12 17 - - 0.0
19/02:00am 20.3 17.8 14.0 67 3.6 SSE 20 28 11 15 - - 0.0
19/01:30am 20.4 18.2 14.3 68 3.5 SSE 19 32 10 17 - - 0.0
19/01:00am 19.9 16.2 13.8 68 3.5 S 26 33 14 18 - - 0.0
19/12:30am 20.4 17.4 14.7 70 3.3 SSE 24 33 13 18 - - 0.0
19/12:00am 20.1 15.9 14.7 71 3.2 SSE 30 41 16 22 - - 0.0
 
Date/Time
EDT
Temp
°C
App
Temp
°C
Dew
Point
°C
Rel
Hum
%
Delta-T
°C
Wind Press
QNH
hPa
Press
MSL
hPa
Rain since
9am
mm
Dir  Spd
km/h
Gust
km/h
Spd
kts
Gust
kts
18/11:30pm 20.4 16.5 14.5 69 3.4 SSE 28 37 15 20 - - 0.0
18/11:00pm 20.5 17.7 14.2 67 3.7 S 22 37 12 20 - - 0.0
18/10:30pm 20.4 16.0 15.2 72 3.1 S 32 50 17 27 - - 0.0
18/10:21pm 20.9 16.9 15.2 70 3.4 S 30 50 16 27 - - 0.0
18/10:00pm 20.8 16.3 14.9 69 3.5 S 32 44 17 24 - - 0.0

Other Formats:

Comma delimited format used in spreadsheet applications
http://www.bom.gov.au/fwo/IDN60801/IDN60801.95749.axf

JavaScript Object Notation format (JSON) in row-major order
http://www.bom.gov.au/fwo/IDN60801/IDN60801.95749.json